Mill Creek, California
Current Conditions -  °F | °C
As of 2:47 PM on Thursday 20 Nov 2014 (Local Time) from KRBL Reporting Station
Light Rain Light Rain  
Wind Chill: 52°   Ceiling: 1000
Heat Index: 52°   Visibility: 5mi
Dew Point: 50°   Wind: 8mph
Humidity: 93%   Direction: 180°S
Pressure: 30.03"   Gusts: NA
Location:  40.33°N, 121.52°W
Report Text: KRBL 202247Z AUTO 18007KT 5SM -RA BR OVC010 11/10 A3003 RMK AO2 CIG 005V014 P0003 T01110100
Loading
Personal Weather Stations






























Interactive Weather Map New forecast layout! Learn more

10-Day Weather Forecast

Advertisements
Track Severe Weather on mobile